createdAt,value
2022-12-18T00:01:26.485Z,101650.50
2022-12-18T00:03:56.000Z,101647.38
2022-12-18T00:06:26.603Z,101659.63
2022-12-18T00:08:55.417Z,101641.81
2022-12-18T00:11:26.245Z,101656.28
2022-12-18T00:13:56.166Z,101651.75
2022-12-18T00:16:25.546Z,101644.94
2022-12-18T00:18:56.054Z,101637.47
2022-12-18T00:21:23.560Z,101634.81
2022-12-18T00:23:51.154Z,101640.81
2022-12-18T00:26:24.029Z,101635.59
2022-12-18T00:28:56.822Z,101636.13
2022-12-18T00:31:25.632Z,101641.72
2022-12-18T00:33:58.495Z,101642.25
2022-12-18T00:36:32.927Z,101634.34
2022-12-18T00:39:01.866Z,101638.13
2022-12-18T00:41:47.734Z,101624.19
2022-12-18T00:44:17.865Z,101628.66
2022-12-18T00:46:47.439Z,101629.78
2022-12-18T00:49:17.990Z,101626.88
2022-12-18T00:51:45.523Z,101615.75
2022-12-18T00:54:12.968Z,101604.84
2022-12-18T00:56:48.365Z,101610.50
2022-12-18T00:59:18.709Z,101609.88
2022-12-18T01:01:47.534Z,101610.09
2022-12-18T01:04:15.549Z,101608.09
2022-12-18T01:06:46.370Z,101605.53
2022-12-18T01:09:14.023Z,101602.19
2022-12-18T01:11:41.532Z,101602.19
2022-12-18T01:14:09.240Z,101597.31
2022-12-18T01:16:38.478Z,101595.53
2022-12-18T01:19:06.044Z,101609.44
2022-12-18T01:21:34.502Z,101604.53
2022-12-18T01:24:06.108Z,101594.31
2022-12-18T01:26:34.738Z,101591.97
2022-12-18T01:29:02.228Z,101585.84
2022-12-18T01:31:33.315Z,101586.97
2022-12-18T01:34:05.338Z,101603.53
2022-12-18T01:36:35.438Z,101608.78
2022-12-18T01:39:07.582Z,101620.34
2022-12-18T01:41:54.549Z,101624.25
2022-12-18T01:44:59.087Z,101618.44
2022-12-18T01:47:36.572Z,101618.03
2022-12-18T01:50:10.295Z,101628.91
2022-12-18T01:52:39.567Z,101597.97
2022-12-18T01:55:08.259Z,101594.09
2022-12-18T01:57:36.182Z,101590.97
2022-12-18T02:00:16.164Z,101599.22
2022-12-18T02:02:46.552Z,101602.88
2022-12-18T02:05:20.241Z,101610.44
2022-12-18T02:08:06.256Z,101605.88
2022-12-18T02:10:39.529Z,101604.53
2022-12-18T02:13:23.093Z,101602.34
2022-12-18T02:15:50.998Z,101608.22
2022-12-18T02:18:21.949Z,101613.22
2022-12-18T02:21:00.784Z,101620.47
2022-12-18T02:23:42.424Z,101617.19
2022-12-18T02:26:25.546Z,101623.78
2022-12-18T02:29:01.754Z,101622.00
2022-12-18T02:31:38.111Z,101611.75
2022-12-18T02:34:09.022Z,101594.16
2022-12-18T02:36:41.748Z,101591.47
2022-12-18T02:39:12.288Z,101595.50
2022-12-18T02:41:46.028Z,101587.81
2022-12-18T02:44:15.511Z,101582.81
2022-12-18T02:46:51.300Z,101585.72
2022-12-18T02:49:37.841Z,101585.72
2022-12-18T02:52:43.002Z,101570.16
2022-12-18T02:55:30.946Z,101559.13
2022-12-18T02:58:24.179Z,101557.47
2022-12-18T03:01:10.564Z,101560.25
2022-12-18T03:03:53.189Z,101557.09
2022-12-18T03:06:31.556Z,101549.16
2022-12-18T03:09:05.580Z,101561.66
2022-12-18T03:11:57.320Z,101553.66
2022-12-18T03:14:27.040Z,101550.66
2022-12-18T03:16:59.992Z,101553.50
2022-12-18T03:19:30.658Z,101565.66
2022-12-18T03:22:03.346Z,101556.41
2022-12-18T03:24:40.669Z,101561.84
2022-12-18T03:27:16.756Z,101565.88
2022-12-18T03:29:53.127Z,101561.38
2022-12-18T03:32:30.609Z,101563.72
2022-12-18T03:35:04.275Z,101553.84
2022-12-18T03:37:34.956Z,101551.38
2022-12-18T03:40:05.100Z,101545.59
2022-12-18T03:42:46.805Z,101554.94
2022-12-18T03:45:14.509Z,101567.94
2022-12-18T03:47:44.834Z,101563.25
2022-12-18T03:50:35.430Z,101568.63
2022-12-18T03:53:30.318Z,101570.41
2022-12-18T03:56:01.875Z,101559.47
2022-12-18T03:58:36.791Z,101564.72
2022-12-18T04:01:29.624Z,101557.78
2022-12-18T04:04:01.329Z,101562.84
2022-12-18T04:06:32.218Z,101561.16
2022-12-18T04:09:00.239Z,101577.75
2022-12-18T04:11:27.990Z,101571.72
2022-12-18T04:13:59.334Z,101568.28
2022-12-18T04:16:27.885Z,101557.28
2022-12-18T04:18:58.444Z,101568.66
2022-12-18T04:21:27.700Z,101565.97
2022-12-18T04:23:54.967Z,101574.06
2022-12-18T04:26:24.356Z,101570.13
2022-12-18T04:29:14.863Z,101569.25
2022-12-18T04:31:42.995Z,101580.97
2022-12-18T04:34:10.770Z,101584.31
2022-12-18T04:36:44.052Z,101582.94
2022-12-18T04:39:11.533Z,101584.13
2022-12-18T04:41:39.125Z,101567.56
2022-12-18T04:44:06.825Z,101567.44
2022-12-18T04:46:34.145Z,101563.31
2022-12-18T04:49:01.537Z,101565.44
2022-12-18T04:51:29.052Z,101562.94
2022-12-18T04:53:56.691Z,101544.72
2022-12-18T04:56:24.130Z,101559.72
2022-12-18T04:58:51.645Z,101559.78
2022-12-18T05:01:19.450Z,101562.19
2022-12-18T05:03:47.060Z,101559.53
2022-12-18T05:06:14.757Z,101558.44
2022-12-18T05:08:42.162Z,101555.09
2022-12-18T05:11:16.708Z,101552.06
2022-12-18T05:13:45.591Z,101548.78
2022-12-18T05:16:13.736Z,101548.69
2022-12-18T05:18:41.869Z,101538.53
2022-12-18T05:21:09.590Z,101533.88
2022-12-18T05:23:37.878Z,101548.00
2022-12-18T05:26:07.444Z,101534.19
2022-12-18T05:28:36.631Z,101530.34
2022-12-18T05:31:05.532Z,101508.16
2022-12-18T05:33:35.293Z,101515.94
2022-12-18T05:36:05.227Z,101504.91
2022-12-18T05:38:34.639Z,101506.19
2022-12-18T05:41:02.306Z,101503.31
2022-12-18T05:43:30.948Z,101503.22
2022-12-18T05:45:58.659Z,101488.63
2022-12-18T05:48:26.176Z,101484.06
2022-12-18T05:50:53.512Z,101491.41
2022-12-18T05:53:21.580Z,101483.59
2022-12-18T05:55:49.164Z,101479.44
2022-12-18T05:58:17.277Z,101476.19
2022-12-18T06:00:46.814Z,101471.75
2022-12-18T06:03:14.783Z,101465.25
2022-12-18T06:05:45.071Z,101468.78
2022-12-18T06:08:14.193Z,101458.63
2022-12-18T06:10:42.776Z,101458.53
2022-12-18T06:13:10.427Z,101467.50
2022-12-18T06:15:38.175Z,101455.56
2022-12-18T06:18:05.698Z,101449.25
2022-12-18T06:20:33.780Z,101451.84
2022-12-18T06:23:01.835Z,101442.56
2022-12-18T06:25:29.245Z,101447.09
2022-12-18T06:27:56.547Z,101463.88
2022-12-18T06:30:23.909Z,101459.91
2022-12-18T06:32:56.411Z,101446.91
2022-12-18T06:35:25.118Z,101455.94
2022-12-18T06:37:52.650Z,101456.19
2022-12-18T06:40:20.289Z,101451.34
2022-12-18T06:42:47.939Z,101455.56
2022-12-18T06:45:15.750Z,101454.41
2022-12-18T06:47:43.260Z,101453.00
2022-12-18T06:50:11.292Z,101447.28
2022-12-18T06:52:40.076Z,101450.13
2022-12-18T06:55:09.318Z,101444.56
2022-12-18T06:57:37.274Z,101443.22
2022-12-18T07:00:06.910Z,101450.13
2022-12-18T07:02:34.721Z,101451.50
2022-12-18T07:05:08.927Z,101455.84
2022-12-18T07:07:36.730Z,101458.00
2022-12-18T07:10:04.501Z,101460.19
2022-12-18T07:12:32.043Z,101459.69
2022-12-18T07:14:59.483Z,101456.41
2022-12-18T07:17:27.045Z,101462.44
2022-12-18T07:19:54.363Z,101460.25
2022-12-18T07:22:21.805Z,101448.38
2022-12-18T07:24:48.955Z,101442.06
2022-12-18T07:27:16.387Z,101457.19
2022-12-18T07:29:43.840Z,101446.44
2022-12-18T07:32:11.521Z,101449.09
2022-12-18T07:34:41.385Z,101451.94
2022-12-18T07:37:08.712Z,101448.59
2022-12-18T07:39:36.001Z,101442.56
2022-12-18T07:42:21.951Z,101438.59
2022-12-18T07:44:50.691Z,101447.66
2022-12-18T07:47:17.947Z,101440.56
2022-12-18T07:49:45.376Z,101441.91
2022-12-18T07:52:13.433Z,101434.69
2022-12-18T07:54:44.077Z,101422.72
2022-12-18T07:57:27.376Z,101417.69
2022-12-18T07:59:59.674Z,101431.91
2022-12-18T08:02:27.190Z,101420.06
2022-12-18T08:04:55.117Z,101409.41
2022-12-18T08:07:22.645Z,101413.75
2022-12-18T08:09:50.138Z,101424.31
2022-12-18T08:12:17.738Z,101427.06
2022-12-18T08:14:45.202Z,101427.25
2022-12-18T08:17:12.588Z,101440.09
2022-12-18T08:19:40.597Z,101425.22
2022-12-18T08:22:07.997Z,101427.72
2022-12-18T08:24:35.374Z,101431.88
2022-12-18T08:29:50.822Z,101401.78
2022-12-18T08:32:18.262Z,101403.34
2022-12-18T08:34:45.591Z,101396.53
2022-12-18T08:37:12.937Z,101400.19
2022-12-18T08:39:40.229Z,101400.53
2022-12-18T08:42:26.118Z,101413.66
2022-12-18T08:44:53.741Z,101405.78
2022-12-18T08:47:21.134Z,101412.94
2022-12-18T08:49:48.689Z,101416.56
2022-12-18T08:52:15.927Z,101410.84
2022-12-18T08:54:43.110Z,101412.63
2022-12-18T08:57:10.562Z,101417.31
2022-12-18T08:59:38.001Z,101414.03
2022-12-18T09:02:05.476Z,101405.50
2022-12-18T09:04:33.084Z,101415.16
2022-12-18T09:07:00.615Z,101418.56
2022-12-18T09:09:28.030Z,101418.09
2022-12-18T09:11:55.297Z,101417.75
2022-12-18T09:14:22.660Z,101432.38
2022-12-18T09:16:50.105Z,101419.94
2022-12-18T09:19:17.808Z,101421.63
2022-12-18T09:21:48.328Z,101427.31
2022-12-18T09:24:17.519Z,101430.31
2022-12-18T09:26:47.178Z,101429.94
2022-12-18T09:29:16.783Z,101429.25
2022-12-18T09:31:47.129Z,101435.16
2022-12-18T09:34:14.717Z,101430.00
2022-12-18T09:36:42.375Z,101431.28
2022-12-18T09:39:11.287Z,101435.41
2022-12-18T09:41:51.139Z,101434.59
2022-12-18T09:44:32.184Z,101429.19
2022-12-18T09:47:08.758Z,101429.19
2022-12-18T09:49:43.066Z,101425.47
2022-12-18T09:52:35.357Z,101420.03
2022-12-18T09:55:12.477Z,101416.50
2022-12-18T09:57:48.896Z,101405.84
2022-12-18T10:00:20.828Z,101401.84
2022-12-18T10:02:49.241Z,101388.25
2022-12-18T10:05:45.211Z,101383.47
2022-12-18T10:08:31.708Z,101379.94
2022-12-18T10:11:15.721Z,101381.88
2022-12-18T10:14:06.181Z,101381.31
2022-12-18T10:17:30.498Z,101378.81
2022-12-18T10:20:03.274Z,101382.84
2022-12-18T10:23:02.497Z,101368.44
2022-12-18T10:25:32.514Z,101367.53
2022-12-18T10:28:09.864Z,101366.66
2022-12-18T10:30:40.281Z,101360.88
2022-12-18T10:33:22.633Z,101348.56
2022-12-18T10:35:53.721Z,101351.22
2022-12-18T10:38:24.810Z,101342.19
2022-12-18T10:41:02.444Z,101343.81
2022-12-18T10:43:38.565Z,101353.47
2022-12-18T10:46:09.115Z,101350.66
2022-12-18T10:48:48.593Z,101346.97
2022-12-18T10:51:31.726Z,101348.09
2022-12-18T10:54:22.170Z,101339.41
2022-12-18T10:56:49.985Z,101340.28
2022-12-18T10:59:19.380Z,101333.84
2022-12-18T11:01:52.783Z,101323.94
2022-12-18T11:04:29.562Z,101329.78
2022-12-18T11:07:03.293Z,101318.16
2022-12-18T11:09:39.517Z,101316.84
2022-12-18T11:12:19.002Z,101325.22
2022-12-18T11:14:54.722Z,101314.09
2022-12-18T11:17:27.134Z,101307.91
2022-12-18T11:19:59.090Z,101308.16
2022-12-18T11:22:32.052Z,101307.56
2022-12-18T11:27:59.154Z,101296.44
2022-12-18T11:30:31.081Z,101287.91
2022-12-18T11:33:10.978Z,101287.50
2022-12-18T11:35:50.968Z,101282.91
2022-12-18T11:38:26.522Z,101289.19
2022-12-18T11:41:07.211Z,101275.72
2022-12-18T11:43:53.694Z,101273.22
2022-12-18T11:46:32.309Z,101277.63
2022-12-18T11:49:08.784Z,101258.78
2022-12-18T11:51:44.570Z,101247.88
2022-12-18T11:54:16.605Z,101250.47
2022-12-18T11:57:18.242Z,101248.63
2022-12-18T12:00:07.011Z,101217.34
2022-12-18T12:03:05.225Z,101218.59
2022-12-18T12:05:54.494Z,101212.91
2022-12-18T12:09:01.556Z,101213.94
2022-12-18T12:12:07.664Z,101218.13
2022-12-18T12:15:03.185Z,101223.53
2022-12-18T12:17:49.456Z,101207.72
2022-12-18T12:20:26.864Z,101206.69
2022-12-18T12:23:01.316Z,101209.56
2022-12-18T12:25:28.839Z,101219.13
2022-12-18T12:28:11.708Z,101214.78
2022-12-18T12:31:21.426Z,101209.78
2022-12-18T12:34:01.109Z,101203.91
2022-12-18T12:36:47.207Z,101199.63
2022-12-18T12:39:21.823Z,101183.78
2022-12-18T12:42:08.148Z,101187.13
2022-12-18T12:44:54.208Z,101181.34
2022-12-18T12:47:37.663Z,101179.66
2022-12-18T12:50:13.365Z,101176.56
2022-12-18T12:52:45.573Z,101180.91
2022-12-18T12:55:28.721Z,101174.09
2022-12-18T12:58:03.343Z,101170.78
2022-12-18T13:00:41.237Z,101168.25
2022-12-18T13:03:12.441Z,101169.59
2022-12-18T13:05:45.393Z,101176.88
2022-12-18T13:08:28.617Z,101169.91
2022-12-18T13:11:19.884Z,101174.19
2022-12-18T13:13:56.217Z,101178.03
2022-12-18T13:16:26.151Z,101175.88
2022-12-18T13:18:57.924Z,101192.97
2022-12-18T13:21:30.231Z,101191.19
2022-12-18T13:24:21.256Z,101185.97
2022-12-18T13:26:49.578Z,101176.66
2022-12-18T13:29:46.399Z,101174.75
2022-12-18T13:32:26.407Z,101170.25
2022-12-18T13:35:22.040Z,101165.63
2022-12-18T13:37:54.673Z,101159.81
2022-12-18T13:40:41.212Z,101162.22
2022-12-18T13:43:20.834Z,101153.97
2022-12-18T13:46:22.337Z,101163.53
2022-12-18T13:48:57.889Z,101155.72
2022-12-18T13:51:27.118Z,101147.34
2022-12-18T13:53:59.449Z,101154.38
2022-12-18T13:56:33.198Z,101142.34
2022-12-18T13:59:24.879Z,101129.75
2022-12-18T14:01:58.812Z,101121.13
2022-12-18T14:04:30.975Z,101122.72
2022-12-18T14:07:13.930Z,101119.34
2022-12-18T14:09:47.183Z,101104.03
2022-12-18T14:12:45.288Z,101094.44
2022-12-18T14:15:43.681Z,101083.53
2022-12-18T14:18:25.576Z,101093.16
2022-12-18T14:20:59.428Z,101093.47
2022-12-18T14:23:40.740Z,101090.34
2022-12-18T14:26:29.065Z,101088.00
2022-12-18T14:28:58.171Z,101092.56
2022-12-18T14:31:27.842Z,101077.41
2022-12-18T14:33:55.396Z,101079.34
2022-12-18T14:36:24.376Z,101070.75
2022-12-18T14:38:59.633Z,101060.88
2022-12-18T14:41:28.939Z,101063.56
2022-12-18T14:44:05.999Z,101084.22
2022-12-18T14:46:33.877Z,101073.88
2022-12-18T14:49:04.606Z,101075.53
2022-12-18T14:51:34.728Z,101073.16
2022-12-18T14:54:05.423Z,101062.69
2022-12-18T14:56:35.060Z,101037.97
2022-12-18T14:59:05.920Z,101055.53
2022-12-18T15:01:38.175Z,101059.88
2022-12-18T15:04:24.169Z,101054.81
2022-12-18T15:07:04.861Z,101062.00
2022-12-18T15:09:32.615Z,101065.53
2022-12-18T15:12:01.859Z,101065.53
2022-12-18T15:14:35.940Z,101072.44
2022-12-18T15:17:08.199Z,101071.50
2022-12-18T15:19:43.821Z,101064.84
2022-12-18T15:22:24.495Z,101064.94
2022-12-18T15:24:52.916Z,101080.78
2022-12-18T15:27:23.550Z,101090.22
2022-12-18T15:30:25.116Z,101101.63
2022-12-18T15:32:54.161Z,101087.25
2022-12-18T15:35:26.267Z,101087.28
2022-12-18T15:37:53.865Z,101081.44
2022-12-18T15:40:27.320Z,101091.88
2022-12-18T15:43:14.702Z,101095.50
2022-12-18T15:45:42.215Z,101087.88
2022-12-18T15:48:19.322Z,101102.84
2022-12-18T15:50:46.680Z,101083.03
2022-12-18T15:53:13.834Z,101072.81
2022-12-18T15:56:01.301Z,101071.09
2022-12-18T15:58:29.142Z,101091.88
2022-12-18T16:00:59.723Z,101058.09
2022-12-18T16:03:27.215Z,101064.06
2022-12-18T16:05:54.467Z,101084.25
2022-12-18T16:08:23.838Z,101074.06
2022-12-18T16:10:51.228Z,101084.69
2022-12-18T16:13:20.671Z,101086.50
2022-12-18T16:15:48.400Z,101074.94
2022-12-18T16:18:16.105Z,101088.19
2022-12-18T16:20:43.689Z,101077.81
2022-12-18T16:23:11.236Z,101077.25
2022-12-18T16:25:38.712Z,101075.50
2022-12-18T16:28:06.298Z,101084.16
2022-12-18T16:30:38.484Z,101069.47
2022-12-18T16:33:07.698Z,101061.78
2022-12-18T16:35:38.090Z,101054.88
2022-12-18T16:38:05.828Z,101058.72
2022-12-18T16:40:34.063Z,101069.13
2022-12-18T16:43:01.557Z,101061.44
2022-12-18T16:45:34.154Z,101043.94
2022-12-18T16:48:01.612Z,101056.38
2022-12-18T16:50:29.069Z,101060.69
2022-12-18T16:52:56.496Z,101060.66
2022-12-18T16:55:23.768Z,101067.03
2022-12-18T16:57:51.132Z,101066.06
2022-12-18T17:00:18.387Z,101067.84
2022-12-18T17:02:47.012Z,101061.03
2022-12-18T17:05:14.858Z,101062.72
2022-12-18T17:07:42.305Z,101062.75
2022-12-18T17:10:10.319Z,101059.50
2022-12-18T17:12:37.777Z,101063.34
2022-12-18T17:15:05.633Z,101054.81
2022-12-18T17:17:33.125Z,101051.47
2022-12-18T17:20:00.913Z,101058.38
2022-12-18T17:22:28.315Z,101067.91
2022-12-18T17:24:55.516Z,101048.13
2022-12-18T17:27:23.039Z,101049.75
2022-12-18T17:29:50.454Z,101045.81
2022-12-18T17:32:18.355Z,101038.19
2022-12-18T17:34:45.922Z,101028.44
2022-12-18T17:37:13.833Z,101032.81
2022-12-18T17:39:42.090Z,101044.13
2022-12-18T17:42:15.271Z,101042.56
2022-12-18T17:44:43.786Z,101043.63
2022-12-18T17:47:13.153Z,101049.69
2022-12-18T17:49:40.892Z,101041.75
2022-12-18T17:52:08.539Z,101048.78
2022-12-18T17:54:39.648Z,101051.59
2022-12-18T17:57:07.506Z,101048.19
2022-12-18T17:59:35.127Z,101037.94
2022-12-18T18:02:03.008Z,101044.09
2022-12-18T18:04:30.796Z,101038.97
2022-12-18T18:06:58.359Z,101027.78
2022-12-18T18:09:25.736Z,101037.25
2022-12-18T18:12:11.471Z,101030.56
2022-12-18T18:14:39.228Z,101037.50
2022-12-18T18:17:06.732Z,101033.47
2022-12-18T18:19:34.458Z,101041.28
2022-12-18T18:22:03.015Z,101026.66
2022-12-18T18:24:31.275Z,101025.13
2022-12-18T18:27:01.774Z,101032.91
2022-12-18T18:29:32.944Z,101021.75
2022-12-18T18:32:01.101Z,101026.09
2022-12-18T18:34:31.008Z,101046.97
2022-12-18T18:36:59.233Z,101033.25
2022-12-18T18:39:27.025Z,101031.59
2022-12-18T18:41:54.615Z,101034.09
2022-12-18T18:44:22.839Z,101042.09
2022-12-18T18:46:57.858Z,101061.28
2022-12-18T18:49:27.905Z,101061.44
2022-12-18T18:51:57.461Z,101067.56
2022-12-18T18:54:25.900Z,101054.59
2022-12-18T18:57:19.290Z,101061.72
2022-12-18T18:59:42.070Z,101060.91
2022-12-18T19:02:13.027Z,101049.72
2022-12-18T19:04:44.754Z,101057.63
2022-12-18T19:07:28.119Z,101054.22
2022-12-18T19:10:03.855Z,101066.50
2022-12-18T19:12:52.605Z,101058.69
2022-12-18T19:15:21.750Z,101049.97
2022-12-18T19:17:49.315Z,101064.06
2022-12-18T19:20:16.905Z,101064.94
2022-12-18T19:22:55.073Z,101059.94
2022-12-18T19:25:40.043Z,101055.41
2022-12-18T19:28:13.245Z,101056.53
2022-12-18T19:30:52.452Z,101044.59
2022-12-18T19:33:42.425Z,101037.69
2022-12-18T19:36:22.429Z,101044.69
2022-12-18T19:38:51.982Z,101036.03
2022-12-18T19:41:20.780Z,101033.41
2022-12-18T19:43:49.325Z,101040.44
2022-12-18T19:46:19.401Z,101036.22
2022-12-18T19:48:47.939Z,101037.13
2022-12-18T19:51:19.215Z,101035.13
2022-12-18T19:53:47.928Z,101028.31
2022-12-18T19:56:18.482Z,101026.72
2022-12-18T19:58:46.140Z,101026.09
2022-12-18T20:01:15.896Z,101036.53
2022-12-18T20:03:51.407Z,101039.25
2022-12-18T20:06:29.041Z,101040.13
2022-12-18T20:09:00.532Z,101035.88
2022-12-18T20:11:30.158Z,101038.66
2022-12-18T20:13:58.647Z,101039.59
2022-12-18T20:16:26.251Z,101037.91
2022-12-18T20:18:55.570Z,101048.28
2022-12-18T20:21:24.144Z,101054.44
2022-12-18T20:23:51.828Z,101042.38
2022-12-18T20:26:19.609Z,101034.59
2022-12-18T20:28:47.006Z,101042.47
2022-12-18T20:31:14.528Z,101045.00
2022-12-18T20:33:42.811Z,101038.03
2022-12-18T20:36:16.385Z,101044.13
2022-12-18T20:38:48.838Z,101037.34
2022-12-18T20:41:19.948Z,101030.47
2022-12-18T20:43:49.565Z,101033.91
2022-12-18T20:46:17.588Z,101047.03
2022-12-18T20:48:45.295Z,101047.13
2022-12-18T20:51:15.738Z,101040.25
2022-12-18T20:53:43.834Z,101045.56
2022-12-18T20:56:21.541Z,101049.09
2022-12-18T20:58:50.486Z,101056.88
2022-12-18T21:01:23.768Z,101053.50
2022-12-18T21:03:52.395Z,101049.22
2022-12-18T21:06:22.570Z,101031.88
2022-12-18T21:08:50.791Z,101051.91
2022-12-18T21:11:39.738Z,101050.19
2022-12-18T21:14:14.963Z,101053.72
2022-12-18T21:16:46.463Z,101057.97
2022-12-18T21:19:19.859Z,101059.75
2022-12-18T21:21:47.519Z,101045.13
2022-12-18T21:24:15.150Z,101040.84
2022-12-18T21:26:45.852Z,101035.66
2022-12-18T21:29:16.772Z,101031.28
2022-12-18T21:31:46.159Z,101039.06
2022-12-18T21:34:18.407Z,101046.09
2022-12-18T21:36:46.551Z,101061.56
2022-12-18T21:39:15.159Z,101059.94
2022-12-18T21:42:01.279Z,101051.41
2022-12-18T21:44:29.012Z,101049.66
2022-12-18T21:47:03.560Z,101031.41
2022-12-18T21:49:36.996Z,101005.38
2022-12-18T21:52:04.303Z,101005.56
2022-12-18T21:54:31.685Z,100998.66
2022-12-18T21:56:59.054Z,100997.69
2022-12-18T21:59:34.981Z,101005.59
2022-12-18T22:02:05.468Z,101015.97
2022-12-18T22:04:33.087Z,101009.00
2022-12-18T22:07:01.243Z,101011.66
2022-12-18T22:09:28.820Z,101007.38
2022-12-18T22:11:56.319Z,100996.16
2022-12-18T22:14:23.615Z,101018.72
2022-12-18T22:16:52.561Z,101046.50
2022-12-18T22:19:20.988Z,101044.81
2022-12-18T22:21:49.674Z,101031.63
2022-12-18T22:24:19.683Z,101034.34
2022-12-18T22:26:48.372Z,101020.38
2022-12-18T22:29:39.703Z,101018.66
2022-12-18T22:32:10.591Z,101042.16
2022-12-18T22:34:39.746Z,101024.66
2022-12-18T22:37:07.268Z,101016.88
2022-12-18T22:39:34.886Z,101013.41
2022-12-18T22:42:02.765Z,101016.03
2022-12-18T22:44:30.374Z,101013.44
2022-12-18T22:47:07.001Z,101005.69
2022-12-18T22:49:35.934Z,101007.41
2022-12-18T22:52:04.976Z,101005.63
2022-12-18T22:54:33.549Z,101006.59
2022-12-18T22:57:01.096Z,101020.53
2022-12-18T22:59:28.525Z,101002.25
2022-12-18T23:01:59.067Z,101007.41
2022-12-18T23:04:33.435Z,100994.44
2022-12-18T23:07:05.852Z,101020.59
2022-12-18T23:09:33.661Z,101017.94
2022-12-18T23:12:01.882Z,101028.56
2022-12-18T23:14:30.003Z,101042.41
2022-12-18T23:16:57.953Z,101048.59
2022-12-18T23:19:25.670Z,101052.88
2022-12-18T23:21:54.517Z,101062.56
2022-12-18T23:24:26.374Z,101059.94
2022-12-18T23:26:54.070Z,101070.38
2022-12-18T23:29:21.896Z,101077.28
2022-12-18T23:31:49.335Z,101067.72
2022-12-18T23:34:18.021Z,101079.06
2022-12-18T23:36:46.956Z,101079.03
2022-12-18T23:39:28.862Z,101083.38
2022-12-18T23:41:58.911Z,101086.06
2022-12-18T23:44:26.489Z,101078.25
2022-12-18T23:46:54.042Z,101064.34
2022-12-18T23:49:21.567Z,101051.31
2022-12-18T23:51:49.481Z,101060.00
2022-12-18T23:54:17.248Z,101044.34
2022-12-18T23:56:49.847Z,101053.16
2022-12-18T23:59:19.341Z,101047.13
